Time;durP1;ratioP1;P1;durP2;ratioP2;P2;SDS_P1;SDS_P2;PMS_P1;PMS_P2;Temp;Humidity;BMP_temperature;BMP_pressure;BME280_temperature;BME280_humidity;BME280_pressure;Samples;Min_cycle;Max_cycle;Signal;HPM_P1;HPM_P2
2023/03/21 00:00:22;;;;;;;;;;;24.10;99.90;;;;;;4935649;29;19957;-58
2023/03/21 00:02:48;;;;;;;;;;;24.10;99.90;;;;;;4935504;29;19946;-58
2023/03/21 00:05:13;;;;;;;;;;;24.10;99.90;;;;;;4935585;29;19906;-59
2023/03/21 00:07:39;;;;;;;;;;;24.10;99.90;;;;;;4935577;29;19907;-58
2023/03/21 00:10:05;;;;;;;;;;;24.00;99.90;;;;;;4935573;29;20391;-58
2023/03/21 00:12:31;;;;;;;;;;;24.00;99.90;;;;;;4944157;29;20279;-57
2023/03/21 00:15:03;;;;;;;;;;;24.00;99.90;;;;;;4939685;28;19910;-57
2023/03/21 00:17:31;;;;;;;;;;;24.10;99.90;;;;;;4935525;29;20351;-55
2023/03/21 00:20:00;;;;;;;;;;;24.00;99.90;;;;;;4947916;29;19948;-56
2023/03/21 00:22:26;;;;;;;;;;;24.00;99.90;;;;;;4935382;29;19954;-56
2023/03/21 00:24:53;;;;;;;;;;;24.00;99.90;;;;;;4934038;29;19907;-56
2023/03/21 00:27:18;;;;;;;;;;;24.00;99.90;;;;;;4935378;29;19906;-56
2023/03/21 00:29:45;;;;;;;;;;;24.00;99.90;;;;;;4935108;29;19907;-56
2023/03/21 00:32:10;;;;;;;;;;;24.00;99.90;;;;;;4935171;29;19907;-56
2023/03/21 00:34:37;;;;;;;;;;;23.90;99.90;;;;;;4935192;29;19915;-56
2023/03/21 00:37:04;;;;;;;;;;;23.90;99.90;;;;;;4935261;29;19914;-55
2023/03/21 00:39:31;;;;;;;;;;;23.90;99.90;;;;;;4935297;29;19907;-56
2023/03/21 00:41:56;;;;;;;;;;;23.90;99.90;;;;;;4935077;29;20403;-56
2023/03/21 00:44:23;;;;;;;;;;;23.90;99.90;;;;;;4935309;29;20009;-56
2023/03/21 00:46:48;;;;;;;;;;;23.90;99.90;;;;;;4935302;29;19938;-57
2023/03/21 00:49:14;;;;;;;;;;;23.90;99.90;;;;;;4935035;29;19946;-57
2023/03/21 00:51:39;;;;;;;;;;;23.90;99.90;;;;;;4935282;29;19915;-56
2023/03/21 00:54:06;;;;;;;;;;;23.90;99.90;;;;;;4935243;29;19907;-58
2023/03/21 00:56:32;;;;;;;;;;;23.90;99.90;;;;;;4940426;29;19918;-56
2023/03/21 00:58:58;;;;;;;;;;;23.90;99.90;;;;;;4942410;28;19974;-57
2023/03/21 01:01:25;;;;;;;;;;;23.80;99.90;;;;;;4935345;29;20342;-56
2023/03/21 01:04:02;;;;;;;;;;;23.80;99.90;;;;;;4935085;29;19911;-57
2023/03/21 01:06:28;;;;;;;;;;;23.80;99.90;;;;;;4935080;29;19954;-55
2023/03/21 01:08:53;;;;;;;;;;;23.80;99.90;;;;;;4934975;29;19945;-56
2023/03/21 01:11:21;;;;;;;;;;;23.80;99.90;;;;;;4934847;29;19906;-56
2023/03/21 01:13:47;;;;;;;;;;;23.80;99.90;;;;;;4935138;29;19997;-56
2023/03/21 01:16:12;;;;;;;;;;;23.80;99.90;;;;;;4934478;29;19998;-56
2023/03/21 01:18:39;;;;;;;;;;;23.80;99.90;;;;;;4935202;29;20422;-56
2023/03/21 01:21:07;;;;;;;;;;;23.80;99.90;;;;;;4935105;29;19907;-58
2023/03/21 01:23:33;;;;;;;;;;;23.80;99.90;;;;;;4941785;29;19913;-56
2023/03/21 01:25:58;;;;;;;;;;;23.70;99.90;;;;;;4939410;28;20378;-56
2023/03/21 01:28:26;;;;;;;;;;;23.70;99.90;;;;;;4934941;29;19907;-55
2023/03/21 01:30:52;;;;;;;;;;;23.80;99.90;;;;;;4934795;29;19962;-55
2023/03/21 01:33:19;;;;;;;;;;;23.70;99.90;;;;;;4935031;29;19997;-56
2023/03/21 01:35:45;;;;;;;;;;;23.70;99.90;;;;;;4935116;29;20227;-57
2023/03/21 01:38:11;;;;;;;;;;;23.70;99.90;;;;;;4934848;29;19969;-56
2023/03/21 01:40:37;;;;;;;;;;;23.70;99.90;;;;;;4934973;29;20355;-56
2023/03/21 01:43:03;;;;;;;;;;;23.70;99.90;;;;;;4934817;29;19946;-56
2023/03/21 01:45:47;;;;;;;;;;;23.70;99.90;;;;;;4934726;29;20379;-55
2023/03/21 01:48:14;;;;;;;;;;;23.70;99.90;;;;;;4926047;29;19906;-57
2023/03/21 01:50:41;;;;;;;;;;;23.60;99.90;;;;;;4938335;29;19913;-56
2023/03/21 01:53:06;;;;;;;;;;;23.60;99.90;;;;;;4938028;29;19907;-56
2023/03/21 01:55:32;;;;;;;;;;;23.60;99.90;;;;;;4937973;29;20009;-57
2023/03/21 01:57:59;;;;;;;;;;;23.60;99.90;;;;;;4938008;29;19914;-55
2023/03/21 02:00:25;;;;;;;;;;;23.60;99.90;;;;;;4937091;29;19925;-56
2023/03/21 02:02:54;;;;;;;;;;;23.60;99.90;;;;;;4937659;29;20303;-56
2023/03/21 02:05:32;;;;;;;;;;;23.60;99.90;;;;;;4937841;29;19913;-56
2023/03/21 02:07:58;;;;;;;;;;;23.60;99.90;;;;;;4940212;29;19906;-57
2023/03/21 02:10:24;;;;;;;;;;;23.60;99.90;;;;;;4947638;28;20001;-56
2023/03/21 02:12:53;;;;;;;;;;;23.60;99.90;;;;;;4937662;29;19961;-56
2023/03/21 02:15:19;;;;;;;;;;;23.60;99.90;;;;;;4937584;29;20307;-57
2023/03/21 02:17:52;;;;;;;;;;;23.60;99.90;;;;;;4937479;29;19907;-55
2023/03/21 02:20:36;;;;;;;;;;;23.50;99.90;;;;;;4937458;29;20371;-55
2023/03/21 02:23:11;;;;;;;;;;;23.50;99.90;;;;;;4937411;29;19965;-55
2023/03/21 02:25:55;;;;;;;;;;;23.50;99.90;;;;;;4937446;29;19991;-55
2023/03/21 02:28:24;;;;;;;;;;;23.50;99.90;;;;;;4937387;29;20042;-55
2023/03/21 02:30:53;;;;;;;;;;;23.50;99.90;;;;;;4937227;29;19906;-55
2023/03/21 02:33:21;;;;;;;;;;;23.40;99.90;;;;;;4941394;29;19910;-54
2023/03/21 02:35:59;;;;;;;;;;;23.40;99.90;;;;;;4945082;28;19915;-54
2023/03/21 02:38:24;;;;;;;;;;;23.40;99.90;;;;;;4937110;29;19907;-54
2023/03/21 02:41:22;;;;;;;;;;;23.40;99.90;;;;;;4937070;29;20407;-54
2023/03/21 02:43:51;;;;;;;;;;;23.40;99.90;;;;;;4916655;29;19954;-54
2023/03/21 02:46:21;;;;;;;;;;;23.40;99.90;;;;;;4936968;29;19954;-54
2023/03/21 02:49:01;;;;;;;;;;;23.40;99.90;;;;;;4937303;29;19911;-55
2023/03/21 02:51:29;;;;;;;;;;;23.40;99.90;;;;;;4936920;29;19907;-55
2023/03/21 02:54:00;;;;;;;;;;;23.40;99.90;;;;;;4936923;29;19926;-54
2023/03/21 02:56:26;;;;;;;;;;;23.40;99.90;;;;;;4935908;29;19921;-55
2023/03/21 02:58:52;;;;;;;;;;;23.40;99.90;;;;;;4936669;29;19906;-55
2023/03/21 03:01:18;;;;;;;;;;;23.30;99.90;;;;;;4937197;29;20291;-55
2023/03/21 03:03:43;;;;;;;;;;;23.40;99.90;;;;;;4935641;29;19906;-55
2023/03/21 03:06:16;;;;;;;;;;;23.30;99.90;;;;;;4936681;29;20363;-56
2023/03/21 03:08:46;;;;;;;;;;;23.30;99.90;;;;;;4936749;29;19998;-55
2023/03/21 03:11:20;;;;;;;;;;;23.30;99.90;;;;;;4936921;29;19961;-56
2023/03/21 03:13:46;;;;;;;;;;;23.30;99.90;;;;;;4936843;29;19907;-56
2023/03/21 03:16:12;;;;;;;;;;;23.30;99.90;;;;;;4936599;29;19921;-56
2023/03/21 03:18:37;;;;;;;;;;;23.30;99.90;;;;;;4936545;29;19954;-56
2023/03/21 03:21:22;;;;;;;;;;;23.30;99.90;;;;;;4936303;29;19914;-55
2023/03/21 03:23:58;;;;;;;;;;;23.30;99.90;;;;;;4936416;29;19914;-56
2023/03/21 03:26:29;;;;;;;;;;;23.30;99.90;;;;;;4935048;29;19911;-55
2023/03/21 03:28:58;;;;;;;;;;;23.30;99.90;;;;;;4936287;29;20390;-56
2023/03/21 03:31:25;;;;;;;;;;;23.30;99.90;;;;;;4936029;29;19914;-55
2023/03/21 03:33:53;;;;;;;;;;;23.20;99.90;;;;;;4936222;29;19929;-55
2023/03/21 03:36:20;;;;;;;;;;;23.20;99.90;;;;;;4936042;29;19915;-55
2023/03/21 03:38:47;;;;;;;;;;;23.20;99.90;;;;;;4936318;29;20379;-56
2023/03/21 03:41:21;;;;;;;;;;;23.20;99.90;;;;;;4935931;29;20018;-57
2023/03/21 03:43:49;;;;;;;;;;;23.20;99.90;;;;;;4936136;29;19913;-55
2023/03/21 03:46:17;;;;;;;;;;;23.20;99.90;;;;;;4935997;29;19914;-54
2023/03/21 03:48:53;;;;;;;;;;;23.20;99.90;;;;;;4936098;29;19911;-55
2023/03/21 03:51:31;;;;;;;;;;;23.20;99.90;;;;;;4935779;29;19906;-55
2023/03/21 03:54:03;;;;;;;;;;;23.10;99.90;;;;;;4935954;29;19997;-55
2023/03/21 03:56:30;;;;;;;;;;;23.10;99.90;;;;;;4934447;29;19915;-55
2023/03/21 03:58:56;;;;;;;;;;;23.20;99.90;;;;;;4935714;29;20000;-56
2023/03/21 04:01:22;;;;;;;;;;;23.10;99.90;;;;;;4936077;29;20407;-55
2023/03/21 04:03:50;;;;;;;;;;;23.10;99.90;;;;;;4936010;29;19953;-55
2023/03/21 04:06:16;;;;;;;;;;;23.10;99.90;;;;;;4935755;29;19914;-57
2023/03/21 04:08:42;;;;;;;;;;;23.10;99.90;;;;;;4935329;29;19915;-55
2023/03/21 04:11:09;;;;;;;;;;;23.10;99.90;;;;;;4934359;29;20360;-55
2023/03/21 04:13:34;;;;;;;;;;;23.10;99.90;;;;;;4935675;29;19962;-55
2023/03/21 04:16:00;;;;;;;;;;;23.10;99.90;;;;;;4935282;29;20271;-56
2023/03/21 04:18:26;;;;;;;;;;;23.00;99.90;;;;;;4935659;29;19914;-56
2023/03/21 04:20:52;;;;;;;;;;;23.00;99.90;;;;;;4935533;29;20316;-55
2023/03/21 04:23:18;;;;;;;;;;;23.00;99.90;;;;;;4934268;29;20001;-55
2023/03/21 04:25:44;;;;;;;;;;;23.00;99.90;;;;;;4935517;29;19914;-56
2023/03/21 04:28:10;;;;;;;;;;;23.00;99.90;;;;;;4935256;29;19997;-55
2023/03/21 04:30:35;;;;;;;;;;;23.00;99.90;;;;;;4935323;29;19914;-55
2023/03/21 04:33:01;;;;;;;;;;;23.00;99.90;;;;;;4935110;29;19907;-56
2023/03/21 04:35:27;;;;;;;;;;;23.00;99.90;;;;;;4935185;29;20005;-55
2023/03/21 04:37:53;;;;;;;;;;;23.00;99.90;;;;;;4935190;29;19915;-56
2023/03/21 04:40:19;;;;;;;;;;;23.00;99.90;;;;;;4934456;29;20240;-55
2023/03/21 04:42:46;;;;;;;;;;;23.00;99.90;;;;;;4935415;29;20009;-55
2023/03/21 04:45:12;;;;;;;;;;;23.00;99.90;;;;;;4935314;29;20001;-55
2023/03/21 04:47:38;;;;;;;;;;;23.00;99.90;;;;;;4935139;29;19911;-55
2023/03/21 04:50:04;;;;;;;;;;;23.00;99.90;;;;;;4935180;29;19929;-55
2023/03/21 04:52:30;;;;;;;;;;;23.00;99.90;;;;;;4935234;29;20375;-56
2023/03/21 04:54:55;;;;;;;;;;;22.90;99.90;;;;;;4934886;29;19918;-56
2023/03/21 04:57:21;;;;;;;;;;;22.90;99.90;;;;;;4935378;29;19962;-56
2023/03/21 04:59:46;;;;;;;;;;;22.90;99.90;;;;;;4935576;29;19989;-57
2023/03/21 05:02:12;;;;;;;;;;;22.90;99.90;;;;;;4935355;29;19982;-56
2023/03/21 05:04:38;;;;;;;;;;;22.90;99.90;;;;;;4935010;29;19907;-56
2023/03/21 05:07:04;;;;;;;;;;;22.90;99.90;;;;;;4935108;29;20021;-56
2023/03/21 05:09:29;;;;;;;;;;;22.90;99.90;;;;;;4934850;29;20407;-56
2023/03/21 05:11:55;;;;;;;;;;;22.90;99.90;;;;;;4934900;29;19914;-56
2023/03/21 05:14:22;;;;;;;;;;;22.90;99.90;;;;;;4934043;29;19914;-58
2023/03/21 05:16:51;;;;;;;;;;;22.90;99.90;;;;;;4933732;29;19922;-56
2023/03/21 05:19:21;;;;;;;;;;;22.90;99.90;;;;;;4934831;29;19913;-56
2023/03/21 05:21:47;;;;;;;;;;;22.90;99.90;;;;;;4937009;29;19914;-56
2023/03/21 05:24:14;;;;;;;;;;;22.90;99.90;;;;;;4938364;29;19907;-56
2023/03/21 05:26:41;;;;;;;;;;;22.90;99.90;;;;;;4938543;29;20311;-58
2023/03/21 05:29:07;;;;;;;;;;;22.90;99.90;;;;;;4938552;29;19910;-56
2023/03/21 05:31:33;;;;;;;;;;;22.90;99.90;;;;;;4938297;29;19913;-56
2023/03/21 05:33:58;;;;;;;;;;;22.90;99.90;;;;;;4938451;29;20420;-56
2023/03/21 05:36:24;;;;;;;;;;;22.80;99.90;;;;;;4938343;29;19914;-55
2023/03/21 05:38:50;;;;;;;;;;;22.90;99.90;;;;;;4938361;29;20225;-57
2023/03/21 05:41:16;;;;;;;;;;;22.80;99.90;;;;;;4938448;29;20739;-58
2023/03/21 05:43:42;;;;;;;;;;;22.80;99.90;;;;;;4938231;29;19910;-58
2023/03/21 05:46:08;;;;;;;;;;;22.80;99.90;;;;;;4938011;29;19906;-56
2023/03/21 05:48:34;;;;;;;;;;;22.80;99.90;;;;;;4936849;29;19989;-57
2023/03/21 05:51:00;;;;;;;;;;;22.80;99.90;;;;;;4936809;29;19907;-57
2023/03/21 05:53:25;;;;;;;;;;;22.80;99.90;;;;;;4936861;29;19961;-57
2023/03/21 05:55:51;;;;;;;;;;;22.80;99.90;;;;;;4937931;29;19965;-56
2023/03/21 05:58:17;;;;;;;;;;;22.80;99.90;;;;;;4937914;29;20379;-56
2023/03/21 06:00:42;;;;;;;;;;;22.80;99.90;;;;;;4937945;29;20394;-57
2023/03/21 06:03:08;;;;;;;;;;;22.80;99.90;;;;;;4937737;29;20006;-55
2023/03/21 06:05:33;;;;;;;;;;;22.80;99.90;;;;;;4937815;29;19907;-57
2023/03/21 06:07:59;;;;;;;;;;;22.80;99.90;;;;;;4938169;29;19907;-56
2023/03/21 06:10:24;;;;;;;;;;;22.80;99.90;;;;;;4948884;28;19982;-57
2023/03/21 06:12:50;;;;;;;;;;;22.80;99.90;;;;;;4937604;29;19913;-56
2023/03/21 06:15:16;;;;;;;;;;;22.80;99.90;;;;;;4937540;29;19917;-55
2023/03/21 06:17:41;;;;;;;;;;;22.80;99.90;;;;;;4937621;29;19942;-56
2023/03/21 06:20:07;;;;;;;;;;;22.80;99.90;;;;;;4937485;29;19919;-55
2023/03/21 06:22:33;;;;;;;;;;;22.70;99.90;;;;;;4948828;29;20267;-56
2023/03/21 06:24:59;;;;;;;;;;;22.70;99.90;;;;;;4938869;28;19913;-54
2023/03/21 06:27:25;;;;;;;;;;;22.70;99.90;;;;;;4937722;29;19960;-56
2023/03/21 06:29:50;;;;;;;;;;;22.70;99.90;;;;;;4937372;29;19929;-57
2023/03/21 06:32:16;;;;;;;;;;;22.70;99.90;;;;;;4937153;29;20307;-57
2023/03/21 06:34:41;;;;;;;;;;;22.70;99.90;;;;;;4937258;29;19954;-56
2023/03/21 06:37:07;;;;;;;;;;;22.70;99.90;;;;;;4937146;29;20383;-56
2023/03/21 06:39:33;;;;;;;;;;;22.70;99.90;;;;;;4937215;29;19906;-57
2023/03/21 06:41:59;;;;;;;;;;;22.70;99.90;;;;;;4937312;29;19961;-56
2023/03/21 06:44:24;;;;;;;;;;;22.70;99.90;;;;;;4937102;29;19914;-58
2023/03/21 06:46:50;;;;;;;;;;;22.70;99.90;;;;;;4937058;29;19918;-57
2023/03/21 06:49:16;;;;;;;;;;;22.70;99.90;;;;;;4950237;29;19941;-56
2023/03/21 06:51:42;;;;;;;;;;;22.70;99.90;;;;;;4936657;29;19933;-58
2023/03/21 06:54:08;;;;;;;;;;;22.70;99.90;;;;;;4936959;29;20403;-56
2023/03/21 06:56:33;;;;;;;;;;;22.70;99.90;;;;;;4936900;29;20022;-58
2023/03/21 06:58:59;;;;;;;;;;;22.70;99.90;;;;;;4936902;29;19985;-57
2023/03/21 07:01:26;;;;;;;;;;;22.70;99.90;;;;;;4936426;29;19919;-59
2023/03/21 07:03:52;;;;;;;;;;;22.70;99.90;;;;;;4936610;29;19915;-59
2023/03/21 07:06:18;;;;;;;;;;;22.60;99.90;;;;;;4936685;29;19907;-58
2023/03/21 07:08:44;;;;;;;;;;;22.60;99.90;;;;;;4940292;29;19910;-57
2023/03/21 07:11:09;;;;;;;;;;;22.40;99.90;;;;;;4936579;29;19907;-59
2023/03/21 07:13:35;;;;;;;;;;;22.30;99.90;;;;;;4936594;29;19995;-59
2023/03/21 07:16:00;;;;;;;;;;;22.20;99.90;;;;;;4936768;29;19953;-58
2023/03/21 07:18:26;;;;;;;;;;;22.10;99.90;;;;;;4935146;29;19907;-59
2023/03/21 07:20:52;;;;;;;;;;;22.00;99.90;;;;;;4936404;29;19929;-59
2023/03/21 07:23:18;;;;;;;;;;;21.90;99.90;;;;;;4936371;29;19930;-60
2023/03/21 07:25:44;;;;;;;;;;;21.80;99.90;;;;;;4935129;29;19907;-57
2023/03/21 07:28:09;;;;;;;;;;;21.80;99.90;;;;;;4935991;29;20387;-57
2023/03/21 07:30:35;;;;;;;;;;;21.70;99.90;;;;;;4936309;29;20244;-58
2023/03/21 07:33:01;;;;;;;;;;;21.70;99.90;;;;;;4936295;29;20034;-56
2023/03/21 07:35:27;;;;;;;;;;;21.70;99.90;;;;;;4936079;29;19957;-57
2023/03/21 07:37:52;;;;;;;;;;;21.70;99.90;;;;;;4931602;29;19915;-57
2023/03/21 07:40:18;;;;;;;;;;;21.70;99.90;;;;;;4928012;29;20307;-56
2023/03/21 07:42:44;;;;;;;;;;;21.80;99.90;;;;;;4934067;29;19906;-57
2023/03/21 07:45:11;;;;;;;;;;;21.80;99.90;;;;;;4935783;29;20399;-58
2023/03/21 07:47:37;;;;;;;;;;;21.80;99.90;;;;;;4935767;29;19907;-55
2023/03/21 07:50:03;;;;;;;;;;;21.90;99.90;;;;;;4935904;29;20018;-55
2023/03/21 07:52:29;;;;;;;;;;;21.90;99.90;;;;;;4936068;29;19906;-55
2023/03/21 07:54:55;;;;;;;;;;;21.90;99.90;;;;;;4935620;29;20376;-55
2023/03/21 07:57:20;;;;;;;;;;;22.00;99.90;;;;;;4935754;29;19910;-56
2023/03/21 07:59:46;;;;;;;;;;;22.00;99.90;;;;;;4935397;29;19906;-56
2023/03/21 08:02:16;;;;;;;;;;;22.10;99.90;;;;;;4935472;29;19946;-57
2023/03/21 08:04:41;;;;;;;;;;;22.10;99.90;;;;;;4935506;29;20017;-56
2023/03/21 08:07:07;;;;;;;;;;;22.10;99.90;;;;;;4935702;29;19997;-58
2023/03/21 08:09:33;;;;;;;;;;;22.10;99.90;;;;;;4935666;29;19914;-56
2023/03/21 08:11:59;;;;;;;;;;;22.20;99.90;;;;;;4934422;29;19953;-56
2023/03/21 08:14:25;;;;;;;;;;;22.20;99.90;;;;;;4935238;29;19907;-56
2023/03/21 08:16:50;;;;;;;;;;;22.20;99.90;;;;;;4935340;29;19922;-57
2023/03/21 08:19:19;;;;;;;;;;;22.30;99.90;;;;;;4935227;29;19907;-57
2023/03/21 08:21:45;;;;;;;;;;;22.30;99.90;;;;;;4935394;29;20331;-56
2023/03/21 08:24:10;;;;;;;;;;;22.30;99.90;;;;;;4935497;29;19907;-57
2023/03/21 08:26:37;;;;;;;;;;;22.30;99.90;;;;;;4935211;29;19907;-57
2023/03/21 08:29:02;;;;;;;;;;;22.40;99.90;;;;;;4935555;29;19906;-57
2023/03/21 08:31:28;;;;;;;;;;;22.40;99.90;;;;;;4948121;29;19913;-56
2023/03/21 08:33:54;;;;;;;;;;;22.40;99.90;;;;;;4935197;29;19925;-58
2023/03/21 08:36:23;;;;;;;;;;;22.40;99.90;;;;;;4935164;29;19915;-56
2023/03/21 08:38:53;;;;;;;;;;;22.40;99.90;;;;;;4935175;29;19914;-57
2023/03/21 08:41:20;;;;;;;;;;;22.50;99.90;;;;;;4935026;29;19953;-57
2023/03/21 08:43:49;;;;;;;;;;;22.50;99.90;;;;;;4935016;29;19911;-58
2023/03/21 08:46:15;;;;;;;;;;;22.50;99.90;;;;;;4934903;29;19914;-57
2023/03/21 08:48:41;;;;;;;;;;;22.50;99.90;;;;;;4935111;29;20312;-59
2023/03/21 08:51:06;;;;;;;;;;;22.60;99.90;;;;;;4935172;29;19907;-56
2023/03/21 08:53:32;;;;;;;;;;;22.60;99.90;;;;;;4935088;29;19906;-55
2023/03/21 08:55:58;;;;;;;;;;;22.60;99.90;;;;;;4938746;29;19919;-55
2023/03/21 08:58:24;;;;;;;;;;;22.60;99.90;;;;;;4938957;29;19910;-56
2023/03/21 09:00:50;;;;;;;;;;;22.60;99.90;;;;;;4938762;29;19922;-56
2023/03/21 09:03:16;;;;;;;;;;;22.70;99.90;;;;;;4951963;29;20259;-56
2023/03/21 09:05:44;;;;;;;;;;;22.70;99.90;;;;;;4950506;29;19910;-57
2023/03/21 09:08:11;;;;;;;;;;;22.70;99.90;;;;;;4939395;28;19911;-56
2023/03/21 09:10:37;;;;;;;;;;;22.70;99.90;;;;;;4937585;29;20021;-57
2023/03/21 09:13:03;;;;;;;;;;;22.70;99.90;;;;;;4938465;29;20046;-56
2023/03/21 09:15:28;;;;;;;;;;;22.70;99.90;;;;;;4938521;29;19925;-56
2023/03/21 09:17:57;;;;;;;;;;;22.70;99.90;;;;;;4938532;29;20312;-58
2023/03/21 09:20:29;;;;;;;;;;;22.80;99.90;;;;;;4938695;29;20272;-56
2023/03/21 09:22:55;;;;;;;;;;;22.80;99.90;;;;;;4938240;29;19917;-56
2023/03/21 09:25:22;;;;;;;;;;;22.80;99.90;;;;;;4938931;29;20311;-57
2023/03/21 09:27:48;;;;;;;;;;;22.80;99.90;;;;;;4938325;29;19906;-57
2023/03/21 09:30:15;;;;;;;;;;;22.90;99.90;;;;;;4938502;29;19929;-56
2023/03/21 09:32:41;;;;;;;;;;;22.90;99.90;;;;;;4938290;29;19913;-56
2023/03/21 09:35:10;;;;;;;;;;;22.90;99.90;;;;;;4938463;29;19911;-57
2023/03/21 09:37:40;;;;;;;;;;;22.90;99.90;;;;;;4938450;29;19911;-58
2023/03/21 09:40:14;;;;;;;;;;;22.90;99.90;;;;;;4929959;29;20386;-56
2023/03/21 09:42:56;;;;;;;;;;;22.90;99.90;;;;;;4944839;28;19913;-58
2023/03/21 09:45:39;;;;;;;;;;;22.90;99.90;;;;;;4938130;29;19962;-56
2023/03/21 09:48:12;;;;;;;;;;;23.00;99.90;;;;;;4950787;29;19907;-57
2023/03/21 09:50:39;;;;;;;;;;;23.00;99.90;;;;;;4936912;29;19907;-57
2023/03/21 09:53:10;;;;;;;;;;;23.00;99.90;;;;;;4937919;29;19961;-58
2023/03/21 09:55:38;;;;;;;;;;;23.00;99.90;;;;;;4937956;29;19915;-57
2023/03/21 09:58:03;;;;;;;;;;;23.10;99.90;;;;;;4937730;29;19914;-58
2023/03/21 10:00:38;;;;;;;;;;;23.10;99.90;;;;;;4945933;29;19918;-55
2023/03/21 10:03:06;;;;;;;;;;;23.10;99.90;;;;;;4941169;28;19914;-57
2023/03/21 10:05:33;;;;;;;;;;;23.10;99.90;;;;;;4937282;29;20002;-54
2023/03/21 10:08:12;;;;;;;;;;;23.10;99.90;;;;;;4937560;29;20426;-57
2023/03/21 10:10:49;;;;;;;;;;;23.20;99.90;;;;;;4936605;29;20251;-55
2023/03/21 10:13:18;;;;;;;;;;;23.20;99.90;;;;;;4937486;29;20400;-55
2023/03/21 10:15:44;;;;;;;;;;;23.30;99.90;;;;;;4937468;29;20291;-54
2023/03/21 10:18:13;;;;;;;;;;;23.30;99.90;;;;;;4939408;29;19917;-57
2023/03/21 10:20:40;;;;;;;;;;;23.30;99.90;;;;;;4948603;28;20354;-57
2023/03/21 10:23:07;;;;;;;;;;;23.30;99.90;;;;;;4937501;29;20388;-57
2023/03/21 10:25:35;;;;;;;;;;;23.40;99.90;;;;;;4937306;29;20278;-59
2023/03/21 10:28:01;;;;;;;;;;;23.40;99.90;;;;;;4937091;29;19906;-60
2023/03/21 10:30:29;;;;;;;;;;;23.40;99.90;;;;;;4937276;29;20005;-59
2023/03/21 10:32:56;;;;;;;;;;;23.50;99.90;;;;;;4937089;29;19911;-58
2023/03/21 10:35:21;;;;;;;;;;;23.50;99.90;;;;;;4937318;29;19920;-58
2023/03/21 10:37:47;;;;;;;;;;;23.50;99.90;;;;;;4950349;29;20425;-58
2023/03/21 10:40:14;;;;;;;;;;;23.60;99.90;;;;;;4948978;28;20001;-57
2023/03/21 10:42:41;;;;;;;;;;;23.60;99.90;;;;;;4937227;29;19946;-57
2023/03/21 10:45:13;;;;;;;;;;;23.60;99.90;;;;;;4937074;29;19922;-56
2023/03/21 10:47:38;;;;;;;;;;;23.60;99.90;;;;;;4936975;29;19913;-56
2023/03/21 10:50:11;;;;;;;;;;;23.70;99.90;;;;;;4935644;29;20427;-58
2023/03/21 10:52:41;;;;;;;;;;;23.70;99.90;;;;;;4936992;29;19911;-57
2023/03/21 10:55:17;;;;;;;;;;;23.70;99.90;;;;;;4936780;29;19926;-56
2023/03/21 10:57:44;;;;;;;;;;;23.80;99.90;;;;;;4949712;29;19906;-57
2023/03/21 11:00:17;;;;;;;;;;;23.80;99.90;;;;;;4936702;29;19919;-57
2023/03/21 11:02:46;;;;;;;;;;;23.90;99.90;;;;;;4936994;29;19907;-58
2023/03/21 11:05:21;;;;;;;;;;;23.90;99.90;;;;;;4924231;29;19911;-57
2023/03/21 11:07:47;;;;;;;;;;;23.90;99.90;;;;;;4936373;29;19917;-57
2023/03/21 11:10:15;;;;;;;;;;;23.90;99.90;;;;;;4942873;29;20410;-55
2023/03/21 11:12:45;;;;;;;;;;;24.00;99.90;;;;;;4942902;28;19994;-57
2023/03/21 11:15:29;;;;;;;;;;;24.00;99.90;;;;;;4936427;29;19910;-59
2023/03/21 11:17:55;;;;;;;;;;;24.00;99.90;;;;;;4935444;29;19915;-57
2023/03/21 11:20:21;;;;;;;;;;;24.10;99.90;;;;;;4936400;29;19976;-58
2023/03/21 11:22:47;;;;;;;;;;;24.00;99.90;;;;;;4936573;29;19938;-58
2023/03/21 11:25:19;;;;;;;;;;;24.10;99.90;;;;;;4948028;28;19907;-57
2023/03/21 11:27:49;;;;;;;;;;;24.10;99.90;;;;;;4936396;29;19906;-59
2023/03/21 11:30:25;;;;;;;;;;;24.20;99.90;;;;;;4936474;29;19913;-58
2023/03/21 11:32:53;;;;;;;;;;;24.20;99.90;;;;;;4935967;29;19907;-57
2023/03/21 11:35:20;;;;;;;;;;;24.20;99.90;;;;;;4936225;29;20390;-57
2023/03/21 11:37:50;;;;;;;;;;;24.20;99.90;;;;;;4936214;29;20290;-57
2023/03/21 11:40:23;;;;;;;;;;;24.30;99.90;;;;;;4936129;29;19907;-58
2023/03/21 11:42:51;;;;;;;;;;;24.30;99.90;;;;;;4935914;29;19907;-57
2023/03/21 11:45:19;;;;;;;;;;;24.30;99.90;;;;;;4936038;29;19993;-58
2023/03/21 11:47:46;;;;;;;;;;;24.30;99.90;;;;;;4936015;29;19906;-59
2023/03/21 11:50:16;;;;;;;;;;;24.30;99.90;;;;;;4935915;29;19911;-58
2023/03/21 11:52:50;;;;;;;;;;;24.40;99.90;;;;;;4935779;29;19911;-58
2023/03/21 11:55:21;;;;;;;;;;;24.40;99.90;;;;;;4935923;29;19914;-58
2023/03/21 11:57:53;;;;;;;;;;;24.40;99.90;;;;;;4935806;29;20001;-57
2023/03/21 12:00:44;;;;;;;;;;;24.40;99.90;;;;;;4935930;29;19915;-57
2023/03/21 12:03:29;;;;;;;;;;;24.50;99.90;;;;;;4935428;29;19910;-57
2023/03/21 12:05:59;;;;;;;;;;;24.50;99.90;;;;;;4935709;29;20374;-57
2023/03/21 12:08:45;;;;;;;;;;;24.50;99.90;;;;;;4935511;29;20367;-57
2023/03/21 12:11:10;;;;;;;;;;;24.50;99.90;;;;;;4935481;29;19911;-57
2023/03/21 12:13:52;;;;;;;;;;;24.50;99.90;;;;;;4935642;29;19913;-57
2023/03/21 12:16:36;;;;;;;;;;;24.60;99.90;;;;;;4935576;29;19921;-56
2023/03/21 12:19:11;;;;;;;;;;;24.60;99.90;;;;;;4935514;29;19914;-56
2023/03/21 12:21:37;;;;;;;;;;;24.60;99.90;;;;;;4935359;29;19907;-57
2023/03/21 12:24:06;;;;;;;;;;;24.60;99.90;;;;;;4935476;29;20278;-57
2023/03/21 12:26:39;;;;;;;;;;;24.70;99.90;;;;;;4935348;29;19911;-58
2023/03/21 12:29:20;;;;;;;;;;;24.70;99.90;;;;;;4943769;28;20262;-59
2023/03/21 12:31:57;;;;;;;;;;;24.70;99.90;;;;;;4935804;28;20382;-56
2023/03/21 12:34:31;;;;;;;;;;;24.70;99.90;;;;;;4933847;29;19907;-57
2023/03/21 12:36:56;;;;;;;;;;;24.70;99.90;;;;;;4935208;29;19937;-58
2023/03/21 12:39:28;;;;;;;;;;;24.70;99.90;;;;;;4935146;29;19907;-58
2023/03/21 12:42:01;;;;;;;;;;;24.70;99.90;;;;;;4927692;29;19906;-58
2023/03/21 12:44:28;;;;;;;;;;;24.80;99.90;;;;;;4940007;28;19998;-58
2023/03/21 12:46:56;;;;;;;;;;;24.80;99.90;;;;;;4935118;29;19910;-57
2023/03/21 12:49:37;;;;;;;;;;;24.80;99.90;;;;;;4935272;29;20438;-58
2023/03/21 12:52:04;;;;;;;;;;;24.80;99.90;;;;;;4923785;29;19906;-58
2023/03/21 12:54:49;;;;;;;;;;;24.80;99.90;;;;;;4935144;29;19929;-56
2023/03/21 12:57:17;;;;;;;;;;;24.90;99.90;;;;;;4924779;29;20005;-56
2023/03/21 12:59:53;;;;;;;;;;;24.90;99.90;;;;;;4934853;29;19921;-56
2023/03/21 13:02:30;;;;;;;;;;;24.90;99.90;;;;;;4935190;29;19942;-56
2023/03/21 13:05:05;;;;;;;;;;;24.90;99.90;;;;;;4934791;29;19911;-56
2023/03/21 13:07:34;;;;;;;;;;;24.90;99.90;;;;;;4934944;29;20378;-57
2023/03/21 13:10:01;;;;;;;;;;;25.00;99.90;;;;;;4934662;29;19907;-58
2023/03/21 13:12:29;;;;;;;;;;;25.00;99.90;;;;;;4934730;29;20355;-56
2023/03/21 13:15:06;;;;;;;;;;;25.00;99.90;;;;;;4934631;29;19935;-56
2023/03/21 13:17:41;;;;;;;;;;;25.00;99.90;;;;;;4935170;29;19917;-56
2023/03/21 13:20:13;;;;;;;;;;;25.00;99.90;;;;;;4934871;29;19906;-56
2023/03/21 13:22:38;;;;;;;;;;;25.00;99.90;;;;;;4934701;29;19962;-58
2023/03/21 13:25:06;;;;;;;;;;;25.00;99.90;;;;;;4934649;29;19906;-59
2023/03/21 13:27:41;;;;;;;;;;;25.00;99.90;;;;;;4934527;29;20336;-58
2023/03/21 13:30:12;;;;;;;;;;;25.10;99.90;;;;;;4934744;29;19913;-57
2023/03/21 13:32:42;;;;;;;;;;;25.10;99.90;;;;;;4934698;29;19906;-57
2023/03/21 13:35:08;;;;;;;;;;;25.00;99.90;;;;;;4934758;29;19911;-57
2023/03/21 13:37:37;;;;;;;;;;;25.10;99.90;;;;;;4933388;29;19911;-58
2023/03/21 13:40:11;;;;;;;;;;;25.10;99.90;;;;;;4934631;29;19913;-57
2023/03/21 13:42:44;;;;;;;;;;;25.10;99.90;;;;;;4952188;29;19953;-56
2023/03/21 13:45:21;;;;;;;;;;;25.10;99.90;;;;;;4938082;29;19907;-55
2023/03/21 13:47:54;;;;;;;;;;;25.10;99.90;;;;;;4937979;29;19917;-57
2023/03/21 13:50:21;;;;;;;;;;;25.10;99.90;;;;;;4936810;29;19911;-56
2023/03/21 13:53:07;;;;;;;;;;;25.20;99.90;;;;;;4937761;29;20013;-56
2023/03/21 13:55:41;;;;;;;;;;;25.20;99.90;;;;;;4938042;29;20286;-57
2023/03/21 13:58:23;;;;;;;;;;;25.20;99.90;;;;;;4937700;29;19910;-56
2023/03/21 14:01:22;;;;;;;;;;;25.20;99.90;;;;;;4937553;29;20360;-56
2023/03/21 14:03:48;;;;;;;;;;;25.20;99.90;;;;;;4936713;29;20035;-59
2023/03/21 14:06:15;;;;;;;;;;;25.20;99.90;;;;;;4937607;29;19906;-58
2023/03/21 14:08:43;;;;;;;;;;;25.20;99.90;;;;;;4937683;29;19907;-56
2023/03/21 14:11:11;;;;;;;;;;;25.30;99.90;;;;;;4950357;29;19906;-57
2023/03/21 14:13:39;;;;;;;;;;;25.20;99.90;;;;;;4937676;29;19907;-58
2023/03/21 14:16:08;;;;;;;;;;;25.20;99.90;;;;;;4937504;29;19915;-56
2023/03/21 14:18:40;;;;;;;;;;;25.30;99.90;;;;;;4937628;29;19913;-56
2023/03/21 14:21:13;;;;;;;;;;;25.20;99.90;;;;;;4937290;29;19907;-55
2023/03/21 14:23:39;;;;;;;;;;;25.30;99.90;;;;;;4945570;29;20005;-57